| time (UTC) | temp C | wind direction | speed KPH | gust KPH | rain 1hr cm | rain 24hr cm | rain mn cm | humidity % | barometer mb |
| 20260505214044 | 13 | 88 | 8.0 | 22.5 | 0.00 | 0.03 | 0.03 | 56 | 1013.3 |
| 20260505213542 | 14 | 102 | 9.7 | 14.5 | 0.00 | 0.03 | 0.03 | 56 | 1013.4 |
| 20260505213038 | 15 | 112 | 4.8 | 6.4 | 0.00 | 0.03 | 0.03 | 50 | 1013.2 |
| 20260505212535 | 15 | 114 | 9.7 | 17.7 | 0.00 | 0.03 | 0.03 | 48 | 1013.2 |
| 20260505212032 | 15 | 46 | 4.8 | 14.5 | 0.00 | 0.03 | 0.03 | 48 | 1013.4 |
| 20260505211529 | 15 | 111 | 4.8 | 8.0 | 0.00 | 0.03 | 0.03 | 50 | 1013.1 |
| 20260505211025 | 15 | 108 | 4.8 | 11.3 | 0.00 | 0.03 | 0.03 | 50 | 1013.2 |
| 20260505210522 | 15 | 132 | 1.6 | 4.8 | 0.00 | 0.03 | 0.03 | 49 | 1013.2 |
| 20260505210020 | 15 | 75 | 3.2 | 14.5 | 0.00 | 0.03 | 0.03 | 48 | 1013.2 |
| 20260505205518 | 16 | 93 | 11.3 | 14.5 | 0.00 | 0.03 | 0.03 | 46 | 1013.3 |
| 20260505205014 | 17 | 257 | 1.6 | 9.7 | 0.00 | 0.03 | 0.03 | 46 | 1013.3 |
| 20260505204512 | 16 | 197 | 3.2 | 9.7 | 0.00 | 0.03 | 0.03 | 45 | 1013.0 |
| 20260505204009 | 16 | 95 | 0.0 | 16.1 | 0.00 | 0.03 | 0.03 | 46 | 1013.6 |
| 20260505203506 | 16 | 287 | 3.2 | 11.3 | 0.00 | 0.03 | 0.03 | 47 | 1013.6 |
| 20260505203003 | 16 | 122 | 3.2 | 6.4 | 0.00 | 0.03 | 0.03 | 49 | 1013.9 |
| 20260505202459 | 15 | 111 | 3.2 | 6.4 | 0.00 | 0.03 | 0.03 | 51 | 1013.7 |
| 20260505201954 | 15 | 317 | 3.2 | 6.4 | 0.00 | 0.03 | 0.03 | 50 | 1013.9 |
| 20260505201452 | 15 | 249 | 9.7 | 11.3 | 0.00 | 0.03 | 0.03 | 49 | 1013.6 |
| 20260505200949 | 15 | 192 | 4.8 | 9.7 | 0.00 | 0.03 | 0.03 | 49 | 1013.7 |
| 20260505200447 | 14 | 21 | 1.6 | 8.0 | 0.00 | 0.03 | 0.03 | 55 | 1013.9 |
| 20260505195943 | 13 | 257 | 0.0 | 6.4 | 0.00 | 0.03 | 0.03 | 59 | 1013.6 |
| 20260505195440 | 13 | 128 | 6.4 | 6.4 | 0.00 | 0.03 | 0.03 | 59 | 1013.9 |
| 20260505194937 | 13 | 256 | 0.0 | 3.2 | 0.00 | 0.03 | 0.03 | 58 | 1014.3 |
| 20260505194435 | 13 | 79 | 3.2 | 6.4 | 0.00 | 0.03 | 0.03 | 59 | 1014.0 |
| 20260505193934 | 13 | 121 | 3.2 | 6.4 | 0.00 | 0.03 | 0.03 | 61 | 1014.0 |
| 20260505193432 | 13 | 282 | 3.2 | 6.4 | 0.00 | 0.03 | 0.03 | 62 | 1013.9 |
| 20260505192930 | 13 | 109 | 3.2 | 9.7 | 0.00 | 0.03 | 0.03 | 62 | 1014.2 |
| 20260505192428 | 12 | 128 | 4.8 | 6.4 | 0.00 | 0.03 | 0.03 | 69 | 1014.0 |
| 20260505191925 | 12 | 228 | 3.2 | 6.4 | 0.00 | 0.03 | 0.03 | 66 | 1014.4 |
| 20260505191424 | 12 | 136 | 3.2 | 6.4 | 0.00 | 0.03 | 0.03 | 67 | 1014.4 |
| 20260505190920 | 12 | 89 | 3.2 | 6.4 | 0.00 | 0.03 | 0.03 | 72 | 1014.4 |
| 20260505190416 | 11 | 130 | 6.4 | 9.7 | 0.05 | 0.03 | 0.03 | 70 | 1014.4 |
| 20260505185911 | 11 | 120 | 4.8 | 6.4 | 0.13 | 0.03 | 0.03 | 76 | 1014.4 |
| 20260505185409 | 11 | 140 | 4.8 | 9.7 | 0.05 | 0.00 | 0.00 | 72 | 1014.3 |
| 20260505184904 | 11 | 138 | 8.0 | 12.9 | 0.00 | 0.00 | 0.00 | 69 | 1014.3 |
| 20260505184401 | 11 | 98 | 3.2 | 9.7 | 0.00 | 0.00 | 0.00 | 66 | 1014.4 |
| 20260505183859 | 12 | 129 | 8.0 | 17.7 | 0.00 | 0.00 | 0.00 | 61 | 1014.3 |
| 20260505183355 | 12 | 109 | 8.0 | 17.7 | 0.00 | 0.00 | 0.00 | 58 | 1014.4 |
| 20260505182852 | 13 | 126 | 4.8 | 17.7 | 0.00 | 0.00 | 0.00 | 54 | 1014.2 |
| 20260505182349 | 13 | 92 | 4.8 | 17.7 | 0.00 | 0.00 | 0.00 | 51 | 1014.4 |
| 20260505181846 | 14 | 99 | 8.0 | 9.7 | 0.00 | 0.00 | 0.00 | 50 | 1014.0 |
| 20260505181343 | 14 | 110 | 0.0 | 9.7 | 0.00 | 0.00 | 0.00 | 49 | 1014.0 |
| 20260505180839 | 14 | 54 | 11.3 | 22.5 | 0.00 | 0.00 | 0.00 | 48 | 1014.0 |
| 20260505180336 | 14 | 98 | 3.2 | 8.0 | 0.00 | 0.00 | 0.00 | 47 | 1013.9 |
| 20260505175832 | 15 | 65 | 11.3 | 14.5 | 0.00 | 0.00 | 0.00 | 46 | 1014.0 |
| 20260505175329 | 15 | 202 | 0.0 | 11.3 | 0.00 | 0.00 | 0.00 | 46 | 1013.9 |
| 20260505174825 | 15 | 142 | 11.3 | 16.1 | 0.00 | 0.00 | 0.00 | 46 | 1014.0 |
| 20260505174323 | 16 | 100 | 6.4 | 19.3 | 0.00 | 0.00 | 0.00 | 42 | 1014.0 |
| 20260505173819 | 16 | 181 | 1.6 | 9.7 | 0.00 | 0.00 | 0.00 | 43 | 1013.9 |
| 20260505173316 | 16 | 122 | 6.4 | 14.5 | 0.00 | 0.00 | 0.00 | 43 | 1014.2 |
| 20260505172813 | 15 | 212 | 3.2 | 6.4 | 0.00 | 0.00 | 0.00 | 45 | 1014.3 |
| 20260505172310 | 15 | 112 | 3.2 | 8.0 | 0.00 | 0.00 | 0.00 | 44 | 1014.0 |
| 20260505171804 | 15 | 172 | 1.6 | 6.4 | 0.00 | 0.00 | 0.00 | 45 | 1014.3 |
| 20260505171302 | 14 | 147 | 3.2 | 6.4 | 0.00 | 0.00 | 0.00 | 46 | 1014.0 |
| 20260505170758 | 13 | 74 | 3.2 | 8.0 | 0.00 | 0.00 | 0.00 | 48 | 1014.2 |
| 20260505170255 | 12 | 105 | 6.4 | 12.9 | 0.00 | 0.00 | 0.00 | 50 | 1014.8 |
| 20260505165755 | 12 | 104 | 8.0 | 9.7 | 0.00 | 0.00 | 0.00 | 50 | 1014.2 |
| 20260505165252 | 12 | 119 | 6.4 | 14.5 | 0.00 | 0.00 | 0.00 | 49 | 1014.3 |
| 20260505164748 | 12 | 228 | 3.2 | 6.4 | 0.00 | 0.00 | 0.00 | 50 | 1014.0 |
| 20260505164245 | 13 | 227 | 3.2 | 8.0 | 0.00 | 0.00 | 0.00 | 50 | 1014.2 |
| 20260505163743 | 12 | 123 | 3.2 | 9.7 | 0.00 | 0.00 | 0.00 | 52 | 1014.5 |
| 20260505163242 | 12 | 233 | 0.0 | 9.7 | 0.00 | 0.00 | 0.00 | 53 | 1014.2 |
| 20260505162739 | 12 | 169 | 6.4 | 6.4 | 0.00 | 0.00 | 0.00 | 54 | 1014.4 |
| 20260505162235 | 11 | 175 | 3.2 | 6.4 | 0.00 | 0.00 | 0.00 | 56 | 1014.4 |
| 20260505161732 | 11 | 195 | 6.4 | 9.7 | 0.00 | 0.00 | 0.00 | 56 | 1014.6 |
| 20260505161230 | 11 | 111 | 0.0 | 8.0 | 0.00 | 0.00 | 0.00 | 58 | 1014.6 |
| 20260505160727 | 11 | 164 | 3.2 | 9.7 | 0.00 | 0.00 | 0.00 | 58 | 1014.8 |
| 20260505160225 | 11 | 190 | 3.2 | 6.4 | 0.00 | 0.00 | 0.00 | 59 | 1014.9 |
| 20260505153204 | 11 | 127 | 0.0 | 12.9 | 0.00 | 0.00 | 0.00 | 59 | 1015.1 |
| 20260505152700 | 11 | 204 | 4.8 | 17.7 | 0.00 | 0.00 | 0.00 | 58 | 1015.0 |
| 20260505152156 | 11 | 193 | 3.2 | 11.3 | 0.00 | 0.00 | 0.00 | 60 | 1015.0 |
| 20260505151652 | 11 | 220 | 3.2 | 9.7 | 0.00 | 0.00 | 0.00 | 61 | 1015.1 |
| 20260505151149 | 11 | 192 | 6.4 | 20.9 | 0.00 | 0.00 | 0.00 | 62 | 1015.0 |
| 20260505150645 | 11 | 187 | 3.2 | 11.3 | 0.00 | 0.00 | 0.00 | 64 | 1015.1 |
| 20260505150143 | 11 | 215 | 4.8 | 12.9 | 0.00 | 0.00 | 0.00 | 64 | 1015.2 |
| 20260505140611 | 11 | 183 | 8.0 | 9.7 | 0.00 | 0.00 | 0.00 | 54 | 1015.4 |
| 20260505140108 | 12 | 173 | 6.4 | 8.0 | 0.00 | 0.00 | 0.00 | 50 | 1015.4 |
| 20260505125024 | 13 | 250 | 4.8 | 4.8 | 0.00 | 0.00 | 0.00 | 43 | 1014.3 |
| 20260505124521 | 13 | 212 | 0.0 | 4.8 | 0.00 | 0.00 | 0.00 | 43 | 1014.0 |
| 20260505124017 | 13 | 210 | 1.6 | 3.2 | 0.00 | 0.00 | 0.00 | 43 | 1014.4 |
| 20260505123514 | 13 | 197 | 0.0 | 6.4 | 0.00 | 0.00 | 0.00 | 43 | 1014.3 |
| 20260505123010 | 13 | 244 | 3.2 | 8.0 | 0.00 | 0.00 | 0.00 | 42 | 1014.5 |
| 20260505122507 | 12 | 218 | 3.2 | 6.4 | 0.00 | 0.00 | 0.00 | 41 | 1014.4 |
| 20260505122004 | 12 | 269 | 3.2 | 6.4 | 0.00 | 0.00 | 0.00 | 41 | 1014.4 |
| 20260505121501 | 12 | 225 | 0.0 | 3.2 | 0.00 | 0.00 | 0.00 | 41 | 1014.6 |
| 20260505120957 | 12 | 253 | 0.0 | 3.2 | 0.00 | 0.00 | 0.00 | 42 | 1014.9 |
| 20260505120453 | 12 | 128 | 3.2 | 3.2 | 0.00 | 0.00 | 0.00 | 41 | 1014.4 |
| 20260505115953 | 12 | 93 | 0.0 | 3.2 | 0.00 | 0.00 | 0.00 | 41 | 1014.6 |
| 20260505115449 | 12 | 116 | 0.0 | 3.2 | 0.00 | 0.00 | 0.00 | 41 | 1014.4 |
| 20260505114947 | 12 | 286 | 0.0 | 3.2 | 0.00 | 0.00 | 0.00 | 40 | 1014.3 |
| 20260505114443 | 12 | 58 | 1.6 | 3.2 | 0.00 | 0.00 | 0.00 | 40 | 1014.4 |
| 20260505113940 | 12 | 16 | 3.2 | 3.2 | 0.00 | 0.00 | 0.00 | 40 | 1013.9 |
| 20260505113436 | 12 | 88 | 1.6 | 6.4 | 0.00 | 0.00 | 0.00 | 39 | 1013.9 |
| 20260505112932 | 13 | 278 | 0.0 | 3.2 | 0.00 | 0.00 | 0.00 | 40 | 1014.0 |
| 20260505112430 | 12 | 214 | 3.2 | 6.4 | 0.00 | 0.00 | 0.00 | 39 | 1014.3 |
| 20260505111926 | 13 | 139 | 0.0 | 3.2 | 0.00 | 0.00 | 0.00 | 37 | 1013.9 |
| 20260505111421 | 13 | 317 | 0.0 | 4.8 | 0.00 | 0.00 | 0.00 | 37 | 1014.2 |
| 20260505110917 | 13 | 138 | 3.2 | 4.8 | 0.00 | 0.00 | 0.00 | 36 | 1014.2 |
| 20260505110414 | 13 | 37 | 3.2 | 4.8 | 0.00 | 0.00 | 0.00 | 37 | 1014.5 |
| 20260505101845 | 13 | 42 | 3.2 | 3.2 | 0.00 | 0.00 | 0.00 | 37 | 1014.4 |
| 20260505101340 | 13 | 51 | 0.0 | 3.2 | 0.00 | 0.00 | 0.00 | 37 | 1014.3 |
| 20260505100836 | 13 | 5 | 0.0 | 1.6 | 0.00 | 0.00 | 0.00 | 37 | 1013.9 |
| 20260505100333 | 13 | 130 | 0.0 | 3.2 | 0.00 | 0.00 | 0.00 | 38 | 1014.2 |
| 20260505095828 | 13 | 116 | 0.0 | 4.8 | 0.00 | 0.00 | 0.00 | 37 | 1013.9 |
| 20260505095326 | 13 | 60 | 3.2 | 4.8 | 0.00 | 0.00 | 0.00 | 37 | 1013.9 |
| 20260505094822 | 13 | 44 | 0.0 | 0.0 | 0.00 | 0.00 | 0.00 | 37 | 1014.0 |
| 20260505094319 | 13 | 40 | 0.0 | 0.0 | 0.00 | 0.00 | 0.00 | 37 | 1014.0 |
| 20260505093814 | 13 | 180 | 0.0 | 1.6 | 0.00 | 0.00 | 0.00 | 36 | 1014.0 |
| 20260505093313 | 13 | 155 | 0.0 | 3.2 | 0.00 | 0.00 | 0.00 | 35 | 1013.8 |
| 20260505092808 | 13 | 65 | 0.0 | 4.8 | 0.00 | 0.00 | 0.00 | 36 | 1014.2 |
| 20260505092308 | 13 | 135 | 0.0 | 1.6 | 0.00 | 0.00 | 0.00 | 37 | 1014.4 |
| 20260505091804 | 13 | 212 | 0.0 | 1.6 | 0.00 | 0.00 | 0.00 | 36 | 1014.3 |
| 20260505091302 | 13 | 44 | 0.0 | 0.0 | 0.00 | 0.00 | 0.00 | 35 | 1014.3 |
| 20260505090759 | 13 | 44 | 0.0 | 1.6 | 0.00 | 0.00 | 0.00 | 36 | 1014.4 |
| 20260505090257 | 14 | 44 | 0.0 | 3.2 | 0.00 | 0.00 | 0.00 | 34 | 1014.5 |
| 20260505085754 | 14 | 73 | 1.6 | 3.2 | 0.00 | 0.00 | 0.00 | 34 | 1014.5 |
| 20260505085252 | 14 | 81 | 0.0 | 4.8 | 0.00 | 0.00 | 0.00 | 33 | 1014.5 |
| 20260505084749 | 14 | 124 | 0.0 | 0.0 | 0.00 | 0.00 | 0.00 | 34 | 1014.6 |
| 20260505084244 | 14 | 22 | 1.6 | 4.8 | 0.00 | 0.00 | 0.00 | 33 | 1014.6 |
| 20260505083740 | 14 | 34 | 0.0 | 1.6 | 0.00 | 0.00 | 0.00 | 34 | 1015.1 |
| 20260505083236 | 15 | 332 | 3.2 | 3.2 | 0.00 | 0.00 | 0.00 | 33 | 1015.1 |
| 20260505082733 | 15 | 57 | 3.2 | 4.8 | 0.00 | 0.00 | 0.00 | 33 | 1015.2 |
| 20260505082230 | 15 | 102 | 3.2 | 3.2 | 0.00 | 0.00 | 0.00 | 33 | 1015.0 |
| 20260505081726 | 15 | 106 | 1.6 | 4.8 | 0.00 | 0.00 | 0.00 | 32 | 1015.0 |
| 20260505081223 | 15 | 72 | 3.2 | 9.7 | 0.00 | 0.00 | 0.00 | 32 | 1015.0 |
| 20260505080720 | 15 | 85 | 6.4 | 9.7 | 0.00 | 0.00 | 0.00 | 32 | 1015.0 |
| 20260505080216 | 15 | 0 | 4.8 | 4.8 | 0.00 | 0.00 | 0.00 | 32 | 1014.9 |
| 20260505075711 | 15 | 86 | 3.2 | 6.4 | 0.00 | 0.00 | 0.00 | 32 | 1015.2 |
| 20260505075209 | 15 | 118 | 1.6 | 6.4 | 0.00 | 0.00 | 0.00 | 32 | 1015.2 |
| 20260505074706 | 15 | 150 | 1.6 | 6.4 | 0.00 | 0.00 | 0.00 | 32 | 1015.4 |
| 20260505074203 | 15 | 159 | 3.2 | 6.4 | 0.00 | 0.00 | 0.00 | 31 | 1015.4 |
| 20260505073701 | 15 | 240 | 3.2 | 19.3 | 0.00 | 0.00 | 0.00 | 31 | 1014.9 |
| 20260505073159 | 15 | 121 | 6.4 | 8.0 | 0.00 | 0.00 | 0.00 | 31 | 1015.0 |
| 20260505072654 | 15 | 216 | 4.8 | 17.7 | 0.00 | 0.00 | 0.00 | 31 | 1015.0 |
| 20260505072151 | 15 | 138 | 3.2 | 16.1 | 0.00 | 0.00 | 0.00 | 31 | 1015.0 |
| 20260505071646 | 15 | 269 | 0.0 | 6.4 | 0.00 | 0.00 | 0.00 | 30 | 1014.9 |
| 20260505071144 | 16 | 116 | 9.7 | 9.7 | 0.00 | 0.00 | 0.00 | 30 | 1014.9 |
| 20260505070641 | 16 | 123 | 1.6 | 3.2 | 0.00 | 0.00 | 0.00 | 30 | 1014.8 |
| 20260505070137 | 16 | 57 | 1.6 | 4.8 | 0.00 | 0.00 | 0.00 | 29 | 1014.8 |
| 20260505065633 | 16 | 293 | 3.2 | 4.8 | 0.00 | 0.00 | 0.00 | 29 | 1014.9 |
| 20260505065130 | 16 | 253 | 0.0 | 4.8 | 0.00 | 0.00 | 0.00 | 30 | 1014.8 |
| 20260505064627 | 16 | 254 | 4.8 | 8.0 | 0.00 | 0.00 | 0.00 | 29 | 1014.8 |
| 20260505064125 | 16 | 127 | 0.0 | 3.2 | 0.00 | 0.00 | 0.00 | 28 | 1014.6 |
| 20260505063622 | 16 | 343 | 3.2 | 8.0 | 0.00 | 0.00 | 0.00 | 28 | 1014.5 |
| 20260505063118 | 16 | 66 | 3.2 | 4.8 | 0.00 | 0.00 | 0.00 | 28 | 1014.6 |
| 20260505062615 | 16 | 49 | 1.6 | 8.0 | 0.00 | 0.00 | 0.00 | 27 | 1014.5 |
| 20260505062112 | 16 | 131 | 6.4 | 12.9 | 0.00 | 0.00 | 0.00 | 27 | 1014.8 |
| 20260505061609 | 16 | 41 | 4.8 | 4.8 | 0.00 | 0.00 | 0.00 | 27 | 1014.8 |
| 20260505061108 | 17 | 111 | 12.9 | 17.7 | 0.00 | 0.00 | 0.00 | 26 | 1014.8 |
| 20260505060605 | 17 | 56 | 12.9 | 14.5 | 0.00 | 0.00 | 0.00 | 26 | 1014.9 |
| 20260505055556 | 17 | 51 | 6.4 | 17.7 | 0.00 | 0.00 | 0.00 | 26 | 1014.9 |
| 20260505055053 | 17 | 107 | 9.7 | 14.5 | 0.00 | 0.00 | 0.00 | 25 | 1014.6 |
| 20260505054550 | 17 | 42 | 3.2 | 8.0 | 0.00 | 0.00 | 0.00 | 25 | 1014.8 |
| 20260505054049 | 17 | 55 | 1.6 | 9.7 | 0.00 | 0.00 | 0.00 | 25 | 1014.6 |
| 20260505053545 | 17 | 80 | 8.0 | 16.1 | 0.00 | 0.00 | 0.00 | 25 | 1014.5 |
| 20260505053042 | 17 | 70 | 6.4 | 11.3 | 0.00 | 0.00 | 0.00 | 25 | 1014.4 |
| 20260505052539 | 17 | 50 | 3.2 | 3.2 | 0.00 | 0.00 | 0.00 | 25 | 1014.3 |
| 20260505052037 | 17 | 72 | 3.2 | 6.4 | 0.00 | 0.00 | 0.00 | 25 | 1014.3 |
| 20260505051533 | 17 | 68 | 3.2 | 4.8 | 0.00 | 0.00 | 0.00 | 25 | 1014.5 |
| 20260505051032 | 17 | 17 | 3.2 | 12.9 | 0.00 | 0.00 | 0.00 | 25 | 1014.4 |
| 20260505050529 | 17 | 92 | 8.0 | 14.5 | 0.00 | 0.00 | 0.00 | 25 | 1014.3 |
| 20260505041457 | 18 | 51 | 3.2 | 3.2 | 0.00 | 0.00 | 0.00 | 25 | 1014.2 |
| 20260505040954 | 18 | 121 | 0.0 | 6.4 | 0.00 | 0.00 | 0.00 | 24 | 1014.4 |
| 20260505040452 | 18 | 197 | 1.6 | 4.8 | 0.00 | 0.00 | 0.00 | 24 | 1014.0 |
| 20260505035948 | 18 | 147 | 6.4 | 9.7 | 0.00 | 0.00 | 0.00 | 24 | 1014.3 |
| 20260505035444 | 18 | 77 | 0.0 | 6.4 | 0.00 | 0.00 | 0.00 | 24 | 1014.4 |
| 20260505034942 | 18 | 209 | 3.2 | 3.2 | 0.00 | 0.00 | 0.00 | 25 | 1014.5 |
| 20260505034438 | 18 | 149 | 1.6 | 6.4 | 0.00 | 0.00 | 0.00 | 24 | 1014.3 |
| 20260505033935 | 18 | 63 | 1.6 | 4.8 | 0.00 | 0.00 | 0.00 | 24 | 1014.0 |
| 20260505033432 | 18 | 171 | 3.2 | 6.4 | 0.00 | 0.00 | 0.00 | 23 | 1013.9 |
| 20260505032930 | 18 | 209 | 1.6 | 3.2 | 0.00 | 0.00 | 0.00 | 23 | 1013.9 |
| 20260505032427 | 18 | 114 | 4.8 | 4.8 | 0.00 | 0.00 | 0.00 | 23 | 1014.0 |
| 20260505031924 | 18 | 41 | 0.0 | 3.2 | 0.00 | 0.00 | 0.00 | 23 | 1013.7 |
| 20260505031421 | 18 | 104 | 6.4 | 6.4 | 0.00 | 0.00 | 0.00 | 23 | 1013.9 |
| 20260505030918 | 19 | 112 | 3.2 | 8.0 | 0.00 | 0.00 | 0.00 | 22 | 1013.6 |
| 20260505030413 | 19 | 259 | 1.6 | 9.7 | 0.00 | 0.00 | 0.00 | 22 | 1013.4 |
| 20260505025909 | 19 | 95 | 8.0 | 12.9 | 0.00 | 0.00 | 0.00 | 22 | 1013.7 |
| 20260505025407 | 19 | 72 | 3.2 | 12.9 | 0.00 | 0.00 | 0.00 | 22 | 1013.7 |
| 20260505024906 | 19 | 108 | 3.2 | 6.4 | 0.00 | 0.00 | 0.00 | 22 | 1013.6 |
| 20260505024403 | 19 | 182 | 1.6 | 9.7 | 0.00 | 0.00 | 0.00 | 21 | 1013.4 |
| 20260505023859 | 20 | 198 | 1.6 | 19.3 | 0.00 | 0.00 | 0.00 | 21 | 1013.2 |
| 20260505023356 | 20 | 204 | 1.6 | 6.4 | 0.00 | 0.00 | 0.00 | 21 | 1013.4 |
| 20260505022853 | 20 | 269 | 0.0 | 14.5 | 0.00 | 0.00 | 0.00 | 21 | 1013.2 |
| 20260505022350 | 20 | 170 | 3.2 | 6.4 | 0.00 | 0.00 | 0.00 | 21 | 1013.3 |
| 20260505021848 | 20 | 131 | 8.0 | 17.7 | 0.00 | 0.00 | 0.00 | 21 | 1013.3 |
| 20260505021344 | 20 | 136 | 12.9 | 17.7 | 0.00 | 0.00 | 0.00 | 21 | 1013.4 |
| 20260505020840 | 20 | 238 | 1.6 | 9.7 | 0.00 | 0.00 | 0.00 | 21 | 1012.8 |
| 20260505020336 | 20 | 314 | 3.2 | 11.3 | 0.00 | 0.00 | 0.00 | 21 | 1013.0 |
| 20260505015833 | 20 | 125 | 6.4 | 11.3 | 0.00 | 0.00 | 0.00 | 21 | 1012.8 |
| 20260505015330 | 20 | 135 | 0.0 | 6.4 | 0.00 | 0.00 | 0.00 | 21 | 1012.8 |
| 20260505014827 | 20 | 124 | 4.8 | 8.0 | 0.00 | 0.00 | 0.00 | 21 | 1013.1 |
| 20260505014324 | 20 | 53 | 3.2 | 4.8 | 0.00 | 0.00 | 0.00 | 21 | 1012.7 |
| 20260505013820 | 20 | 67 | 1.6 | 3.2 | 0.00 | 0.00 | 0.00 | 21 | 1012.6 |
| 20260505013318 | 20 | 140 | 0.0 | 6.4 | 0.00 | 0.00 | 0.00 | 21 | 1012.6 |
| 20260505012816 | 20 | 110 | 3.2 | 6.4 | 0.00 | 0.00 | 0.00 | 21 | 1012.7 |
| 20260505012314 | 20 | 134 | 6.4 | 12.9 | 0.00 | 0.00 | 0.00 | 20 | 1012.4 |
| 20260505011809 | 20 | 228 | 4.8 | 14.5 | 0.00 | 0.00 | 0.00 | 20 | 1012.4 |
| 20260505011307 | 20 | 145 | 1.6 | 8.0 | 0.00 | 0.00 | 0.00 | 20 | 1012.7 |
| 20260505010802 | 20 | 126 | 3.2 | 14.5 | 0.00 | 0.00 | 0.00 | 20 | 1012.7 |
| 20260505010258 | 20 | 137 | 3.2 | 4.8 | 0.00 | 0.00 | 0.00 | 19 | 1012.5 |
| 20260505005754 | 20 | 215 | 4.8 | 4.8 | 0.00 | 0.00 | 0.00 | 19 | 1012.5 |
| 20260505005252 | 21 | 164 | 1.6 | 6.4 | 0.00 | 0.00 | 0.00 | 19 | 1012.1 |
| 20260505004749 | 21 | 196 | 4.8 | 11.3 | 0.00 | 0.00 | 0.00 | 19 | 1012.5 |
| 20260505004245 | 21 | 271 | 3.2 | 8.0 | 0.00 | 0.00 | 0.00 | 19 | 1012.4 |
| 20260505003743 | 21 | 154 | 6.4 | 12.9 | 0.00 | 0.00 | 0.00 | 18 | 1012.7 |
| 20260505003240 | 21 | 178 | 3.2 | 9.7 | 0.00 | 0.00 | 0.00 | 18 | 1012.7 |
| 20260505002736 | 21 | 315 | 0.0 | 8.0 | 0.00 | 0.00 | 0.00 | 18 | 1012.6 |
| 20260505002234 | 21 | 199 | 3.2 | 11.3 | 0.00 | 0.00 | 0.00 | 17 | 1012.6 |
| 20260505001731 | 21 | 203 | 3.2 | 12.9 | 0.00 | 0.00 | 0.00 | 17 | 1012.8 |
| 20260505001229 | 21 | 89 | 0.0 | 9.7 | 0.00 | 0.00 | 0.00 | 17 | 1012.8 |
| 20260505000725 | 21 | 60 | 3.2 | 4.8 | 0.00 | 0.00 | 0.00 | 17 | 1013.0 |
| 20260505000226 | 21 | 89 | 0.0 | 4.8 | 0.00 | 0.00 | 0.00 | 17 | 1012.7 |
| 20260504235720 | 21 | 135 | 3.2 | 4.8 | 0.00 | 0.00 | 0.00 | 16 | 1012.8 |
| 20260504235216 | 21 | 134 | 6.4 | 14.5 | 0.00 | 0.00 | 0.00 | 16 | 1012.7 |
| 20260504234713 | 21 | 128 | 6.4 | 14.5 | 0.00 | 0.00 | 0.00 | 16 | 1013.0 |
| 20260504234210 | 21 | 265 | 4.8 | 8.0 | 0.00 | 0.00 | 0.00 | 16 | 1013.0 |
| 20260504233706 | 21 | 137 | 3.2 | 19.3 | 0.00 | 0.00 | 0.00 | 16 | 1013.0 |
| 20260504233202 | 21 | 50 | 1.6 | 14.5 | 0.00 | 0.00 | 0.00 | 16 | 1013.0 |
| 20260504232700 | 21 | 101 | 0.0 | 12.9 | 0.00 | 0.00 | 0.00 | 16 | 1013.0 |
| 20260504232157 | 21 | 197 | 0.0 | 14.5 | 0.00 | 0.00 | 0.00 | 16 | 1012.7 |
| 20260504231653 | 21 | 93 | 11.3 | 19.3 | 0.00 | 0.00 | 0.00 | 15 | 1013.0 |
| 20260504231150 | 22 | 113 | 3.2 | 11.3 | 0.00 | 0.00 | 0.00 | 15 | 1012.8 |
| 20260504230646 | 22 | 123 | 9.7 | 22.5 | 0.00 | 0.00 | 0.00 | 15 | 1012.8 |
| 20260504230145 | 22 | 134 | 14.5 | 24.1 | 0.00 | 0.00 | 0.00 | 15 | 1013.2 |
| 20260504225643 | 22 | 147 | 6.4 | 27.4 | 0.00 | 0.00 | 0.00 | 14 | 1013.1 |
| 20260504225138 | 22 | 214 | 0.0 | 12.9 | 0.00 | 0.00 | 0.00 | 14 | 1012.7 |
| 20260504224636 | 22 | 136 | 3.2 | 12.9 | 0.00 | 0.00 | 0.00 | 14 | 1013.0 |
| 20260504224132 | 22 | 129 | 3.2 | 17.7 | 0.00 | 0.00 | 0.00 | 14 | 1013.0 |
| 20260504223630 | 22 | 129 | 9.7 | 22.5 | 0.00 | 0.00 | 0.00 | 14 | 1013.3 |
| 20260504223125 | 22 | 115 | 4.8 | 17.7 | 0.00 | 0.00 | 0.00 | 14 | 1013.3 |
| 20260504222623 | 22 | 121 | 14.5 | 24.1 | 0.00 | 0.00 | 0.00 | 13 | 1013.1 |
| 20260504222120 | 22 | 108 | 1.6 | 27.4 | 0.00 | 0.00 | 0.00 | 14 | 1013.1 |
| 20260504221617 | 22 | 115 | 9.7 | 14.5 | 0.00 | 0.00 | 0.00 | 17 | 1013.3 |
| 20260504221114 | 22 | 97 | 9.7 | 19.3 | 0.00 | 0.00 | 0.00 | 17 | 1013.3 |
| 20260504220610 | 22 | 113 | 4.8 | 12.9 | 0.00 | 0.00 | 0.00 | 19 | 1013.3 |
| 20260504220108 | 22 | 106 | 11.3 | 22.5 | 0.00 | 0.00 | 0.00 | 18 | 1013.3 |
| 20260504215603 | 22 | 44 | 6.4 | 14.5 | 0.00 | 0.00 | 0.00 | 19 | 1013.3 |
| 20260504215101 | 22 | 79 | 12.9 | 17.7 | 0.00 | 0.00 | 0.00 | 19 | 1013.6 |
| 20260504214557 | 22 | 87 | 14.5 | 24.1 | 0.00 | 0.00 | 0.00 | 18 | 1013.8 |